sensor_id;sensor_type;location;lat;lon;timestamp;P1;durP1;ratioP1;P2;durP2;ratioP2
11620;SDS011;5866;49.094;11.900;2023-04-28T00:02:27;6.93;;;5.67;;
11620;SDS011;5866;49.094;11.900;2023-04-28T00:04:56;11.20;;;6.03;;
11620;SDS011;5866;49.094;11.900;2023-04-28T00:07:24;8.13;;;6.43;;
11620;SDS011;5866;49.094;11.900;2023-04-28T00:09:51;12.73;;;6.53;;
11620;SDS011;5866;49.094;11.900;2023-04-28T00:12:19;9.03;;;6.87;;
11620;SDS011;5866;49.094;11.900;2023-04-28T00:14:46;10.73;;;6.20;;
11620;SDS011;5866;49.094;11.900;2023-04-28T00:17:14;10.73;;;6.70;;
11620;SDS011;5866;49.094;11.900;2023-04-28T00:19:42;7.60;;;5.77;;
11620;SDS011;5866;49.094;11.900;2023-04-28T00:22:11;11.03;;;6.53;;
11620;SDS011;5866;49.094;11.900;2023-04-28T00:24:40;9.73;;;6.37;;
11620;SDS011;5866;49.094;11.900;2023-04-28T00:27:07;8.55;;;6.22;;
11620;SDS011;5866;49.094;11.900;2023-04-28T00:29:35;9.07;;;6.60;;
11620;SDS011;5866;49.094;11.900;2023-04-28T00:32:02;7.53;;;6.07;;
11620;SDS011;5866;49.094;11.900;2023-04-28T00:34:31;7.18;;;6.25;;
11620;SDS011;5866;49.094;11.900;2023-04-28T00:36:59;8.50;;;6.40;;
11620;SDS011;5866;49.094;11.900;2023-04-28T00:39:28;7.15;;;6.10;;
11620;SDS011;5866;49.094;11.900;2023-04-28T00:41:55;8.85;;;6.15;;
11620;SDS011;5866;49.094;11.900;2023-04-28T00:44:23;9.65;;;6.00;;
11620;SDS011;5866;49.094;11.900;2023-04-28T00:46:50;7.90;;;6.13;;
11620;SDS011;5866;49.094;11.900;2023-04-28T00:49:18;7.93;;;5.83;;
11620;SDS011;5866;49.094;11.900;2023-04-28T00:51:46;8.33;;;5.93;;
11620;SDS011;5866;49.094;11.900;2023-04-28T00:54:13;9.93;;;6.20;;
11620;SDS011;5866;49.094;11.900;2023-04-28T00:56:43;9.10;;;5.83;;
11620;SDS011;5866;49.094;11.900;2023-04-28T00:59:10;8.40;;;6.07;;
11620;SDS011;5866;49.094;11.900;2023-04-28T01:01:38;7.37;;;6.10;;
11620;SDS011;5866;49.094;11.900;2023-04-28T01:04:05;6.72;;;5.43;;
11620;SDS011;5866;49.094;11.900;2023-04-28T01:06:33;8.10;;;6.07;;
11620;SDS011;5866;49.094;11.900;2023-04-28T01:09:03;7.53;;;5.90;;
11620;SDS011;5866;49.094;11.900;2023-04-28T01:11:31;7.63;;;6.63;;
11620;SDS011;5866;49.094;11.900;2023-04-28T01:14:00;7.20;;;5.90;;
11620;SDS011;5866;49.094;11.900;2023-04-28T01:16:27;7.23;;;5.97;;
11620;SDS011;5866;49.094;11.900;2023-04-28T01:18:57;7.67;;;6.30;;
11620;SDS011;5866;49.094;11.900;2023-04-28T01:21:26;10.30;;;6.10;;
11620;SDS011;5866;49.094;11.900;2023-04-28T01:23:56;7.43;;;6.13;;
11620;SDS011;5866;49.094;11.900;2023-04-28T01:26:24;9.20;;;6.43;;
11620;SDS011;5866;49.094;11.900;2023-04-28T01:28:52;9.43;;;6.40;;
11620;SDS011;5866;49.094;11.900;2023-04-28T01:31:19;10.07;;;6.17;;
11620;SDS011;5866;49.094;11.900;2023-04-28T01:33:47;7.90;;;5.65;;
11620;SDS011;5866;49.094;11.900;2023-04-28T01:36:14;6.90;;;5.53;;
11620;SDS011;5866;49.094;11.900;2023-04-28T01:38:42;6.73;;;5.97;;
11620;SDS011;5866;49.094;11.900;2023-04-28T01:41:11;8.37;;;5.67;;
11620;SDS011;5866;49.094;11.900;2023-04-28T01:43:38;6.47;;;5.57;;
11620;SDS011;5866;49.094;11.900;2023-04-28T01:46:06;8.32;;;5.93;;
11620;SDS011;5866;49.094;11.900;2023-04-28T01:48:33;7.27;;;6.00;;
11620;SDS011;5866;49.094;11.900;2023-04-28T01:51:01;7.22;;;6.57;;
11620;SDS011;5866;49.094;11.900;2023-04-28T01:53:28;8.33;;;5.93;;
11620;SDS011;5866;49.094;11.900;2023-04-28T01:55:56;7.40;;;5.88;;
11620;SDS011;5866;49.094;11.900;2023-04-28T01:58:25;6.45;;;5.68;;
11620;SDS011;5866;49.094;11.900;2023-04-28T02:00:53;6.37;;;5.73;;
11620;SDS011;5866;49.094;11.900;2023-04-28T02:03:20;8.95;;;6.43;;
11620;SDS011;5866;49.094;11.900;2023-04-28T02:05:48;7.27;;;5.97;;
11620;SDS011;5866;49.094;11.900;2023-04-28T02:08:15;9.80;;;5.33;;
11620;SDS011;5866;49.094;11.900;2023-04-28T02:10:43;6.40;;;5.00;;
11620;SDS011;5866;49.094;11.900;2023-04-28T02:13:11;8.13;;;5.72;;
11620;SDS011;5866;49.094;11.900;2023-04-28T02:15:40;6.05;;;5.45;;
11620;SDS011;5866;49.094;11.900;2023-04-28T02:18:08;6.90;;;5.60;;
11620;SDS011;5866;49.094;11.900;2023-04-28T02:20:36;7.43;;;5.60;;
11620;SDS011;5866;49.094;11.900;2023-04-28T02:23:03;8.07;;;5.70;;
11620;SDS011;5866;49.094;11.900;2023-04-28T02:25:31;8.97;;;5.90;;
11620;SDS011;5866;49.094;11.900;2023-04-28T02:27:58;8.53;;;5.37;;
11620;SDS011;5866;49.094;11.900;2023-04-28T02:30:26;7.28;;;5.90;;
11620;SDS011;5866;49.094;11.900;2023-04-28T02:32:55;8.83;;;5.77;;
11620;SDS011;5866;49.094;11.900;2023-04-28T02:35:22;6.83;;;5.70;;
11620;SDS011;5866;49.094;11.900;2023-04-28T02:37:50;12.50;;;5.22;;
11620;SDS011;5866;49.094;11.900;2023-04-28T02:40:17;8.53;;;5.70;;
11620;SDS011;5866;49.094;11.900;2023-04-28T02:42:45;6.83;;;5.90;;
11620;SDS011;5866;49.094;11.900;2023-04-28T02:45:13;6.40;;;5.70;;
11620;SDS011;5866;49.094;11.900;2023-04-28T02:47:40;7.93;;;5.67;;
11620;SDS011;5866;49.094;11.900;2023-04-28T02:50:10;8.97;;;5.50;;
11620;SDS011;5866;49.094;11.900;2023-04-28T02:52:37;7.33;;;5.93;;
11620;SDS011;5866;49.094;11.900;2023-04-28T02:55:05;7.67;;;5.50;;
11620;SDS011;5866;49.094;11.900;2023-04-28T02:57:33;8.27;;;5.47;;
11620;SDS011;5866;49.094;11.900;2023-04-28T03:00:00;7.47;;;5.77;;
11620;SDS011;5866;49.094;11.900;2023-04-28T03:02:28;7.03;;;5.70;;
11620;SDS011;5866;49.094;11.900;2023-04-28T03:04:56;8.37;;;5.77;;
11620;SDS011;5866;49.094;11.900;2023-04-28T03:07:25;9.37;;;5.60;;
11620;SDS011;5866;49.094;11.900;2023-04-28T03:09:53;10.10;;;6.87;;
11620;SDS011;5866;49.094;11.900;2023-04-28T03:12:20;11.13;;;5.93;;
11620;SDS011;5866;49.094;11.900;2023-04-28T03:14:48;6.90;;;5.23;;
11620;SDS011;5866;49.094;11.900;2023-04-28T03:17:15;6.13;;;5.50;;
11620;SDS011;5866;49.094;11.900;2023-04-28T03:19:43;6.60;;;5.90;;
11620;SDS011;5866;49.094;11.900;2023-04-28T03:22:10;6.77;;;5.47;;
11620;SDS011;5866;49.094;11.900;2023-04-28T03:24:39;6.10;;;5.10;;
11620;SDS011;5866;49.094;11.900;2023-04-28T03:27:06;6.83;;;5.23;;
11620;SDS011;5866;49.094;11.900;2023-04-28T03:29:34;7.97;;;5.40;;
11620;SDS011;5866;49.094;11.900;2023-04-28T03:32:01;10.80;;;5.30;;
11620;SDS011;5866;49.094;11.900;2023-04-28T03:34:29;8.97;;;5.27;;
11620;SDS011;5866;49.094;11.900;2023-04-28T03:36:56;7.13;;;4.43;;
11620;SDS011;5866;49.094;11.900;2023-04-28T03:39:24;7.37;;;5.53;;
11620;SDS011;5866;49.094;11.900;2023-04-28T03:41:53;5.87;;;5.30;;
11620;SDS011;5866;49.094;11.900;2023-04-28T03:44:20;6.23;;;5.43;;
11620;SDS011;5866;49.094;11.900;2023-04-28T03:46:48;5.87;;;4.83;;
11620;SDS011;5866;49.094;11.900;2023-04-28T03:49:16;6.07;;;5.07;;
11620;SDS011;5866;49.094;11.900;2023-04-28T03:51:43;6.67;;;5.53;;
11620;SDS011;5866;49.094;11.900;2023-04-28T03:54:11;6.00;;;5.40;;
11620;SDS011;5866;49.094;11.900;2023-04-28T03:56:39;6.60;;;5.43;;
11620;SDS011;5866;49.094;11.900;2023-04-28T03:59:08;6.43;;;5.40;;
11620;SDS011;5866;49.094;11.900;2023-04-28T04:01:36;7.07;;;5.43;;
11620;SDS011;5866;49.094;11.900;2023-04-28T04:04:04;6.57;;;5.27;;
11620;SDS011;5866;49.094;11.900;2023-04-28T04:06:32;5.77;;;5.07;;
11620;SDS011;5866;49.094;11.900;2023-04-28T04:09:00;5.53;;;5.03;;
11620;SDS011;5866;49.094;11.900;2023-04-28T04:11:27;7.18;;;5.20;;
11620;SDS011;5866;49.094;11.900;2023-04-28T04:13:55;6.70;;;4.60;;
11620;SDS011;5866;49.094;11.900;2023-04-28T04:16:24;6.05;;;4.80;;
11620;SDS011;5866;49.094;11.900;2023-04-28T04:18:52;6.00;;;5.07;;
11620;SDS011;5866;49.094;11.900;2023-04-28T04:21:19;6.43;;;5.07;;
11620;SDS011;5866;49.094;11.900;2023-04-28T04:23:47;6.47;;;4.87;;
11620;SDS011;5866;49.094;11.900;2023-04-28T04:26:14;5.10;;;4.60;;
11620;SDS011;5866;49.094;11.900;2023-04-28T04:28:42;5.20;;;4.50;;
11620;SDS011;5866;49.094;11.900;2023-04-28T04:31:09;4.93;;;4.43;;
11620;SDS011;5866;49.094;11.900;2023-04-28T04:33:38;6.57;;;5.07;;
11620;SDS011;5866;49.094;11.900;2023-04-28T04:36:06;7.63;;;5.17;;
11620;SDS011;5866;49.094;11.900;2023-04-28T04:38:34;4.90;;;4.30;;
11620;SDS011;5866;49.094;11.900;2023-04-28T04:41:01;6.27;;;4.53;;
11620;SDS011;5866;49.094;11.900;2023-04-28T04:43:29;4.97;;;4.50;;
11620;SDS011;5866;49.094;11.900;2023-04-28T04:45:56;5.83;;;5.23;;
11620;SDS011;5866;49.094;11.900;2023-04-28T04:48:24;8.25;;;5.00;;
11620;SDS011;5866;49.094;11.900;2023-04-28T04:50:53;5.22;;;4.43;;
11620;SDS011;5866;49.094;11.900;2023-04-28T04:53:20;5.57;;;4.75;;
11620;SDS011;5866;49.094;11.900;2023-04-28T04:55:48;5.25;;;4.55;;
11620;SDS011;5866;49.094;11.900;2023-04-28T04:58:15;5.72;;;4.47;;
11620;SDS011;5866;49.094;11.900;2023-04-28T05:00:43;5.73;;;4.60;;
11620;SDS011;5866;49.094;11.900;2023-04-28T05:03:10;6.13;;;4.82;;
11620;SDS011;5866;49.094;11.900;2023-04-28T05:05:38;7.35;;;5.18;;
11620;SDS011;5866;49.094;11.900;2023-04-28T05:08:08;6.30;;;4.32;;
11620;SDS011;5866;49.094;11.900;2023-04-28T05:10:35;5.47;;;4.63;;
11620;SDS011;5866;49.094;11.900;2023-04-28T05:13:03;6.05;;;4.75;;
11620;SDS011;5866;49.094;11.900;2023-04-28T05:15:30;6.47;;;5.20;;
11620;SDS011;5866;49.094;11.900;2023-04-28T05:17:58;6.97;;;4.83;;
11620;SDS011;5866;49.094;11.900;2023-04-28T05:20:26;8.18;;;4.68;;
11620;SDS011;5866;49.094;11.900;2023-04-28T05:22:53;7.03;;;4.80;;
11620;SDS011;5866;49.094;11.900;2023-04-28T05:25:22;6.43;;;4.43;;
11620;SDS011;5866;49.094;11.900;2023-04-28T05:27:50;6.68;;;4.95;;
11620;SDS011;5866;49.094;11.900;2023-04-28T05:30:17;8.93;;;5.15;;
11620;SDS011;5866;49.094;11.900;2023-04-28T05:32:45;6.28;;;5.00;;
11620;SDS011;5866;49.094;11.900;2023-04-28T05:35:12;6.93;;;5.07;;
11620;SDS011;5866;49.094;11.900;2023-04-28T05:37:40;5.25;;;4.75;;
11620;SDS011;5866;49.094;11.900;2023-04-28T05:40:08;4.72;;;4.32;;
11620;SDS011;5866;49.094;11.900;2023-04-28T05:42:38;7.35;;;4.88;;
11620;SDS011;5866;49.094;11.900;2023-04-28T05:45:06;7.40;;;5.20;;
11620;SDS011;5866;49.094;11.900;2023-04-28T05:47:34;7.15;;;5.03;;
11620;SDS011;5866;49.094;11.900;2023-04-28T05:50:02;7.65;;;4.85;;
11620;SDS011;5866;49.094;11.900;2023-04-28T05:52:29;7.13;;;4.82;;
11620;SDS011;5866;49.094;11.900;2023-04-28T05:54:57;7.40;;;5.00;;
11620;SDS011;5866;49.094;11.900;2023-04-28T05:57:24;6.53;;;5.03;;
11620;SDS011;5866;49.094;11.900;2023-04-28T05:59:53;7.88;;;5.05;;
11620;SDS011;5866;49.094;11.900;2023-04-28T06:02:21;6.15;;;4.60;;
11620;SDS011;5866;49.094;11.900;2023-04-28T06:04:50;5.80;;;5.03;;
11620;SDS011;5866;49.094;11.900;2023-04-28T06:07:18;11.02;;;5.43;;
11620;SDS011;5866;49.094;11.900;2023-04-28T06:09:46;5.60;;;4.78;;
11620;SDS011;5866;49.094;11.900;2023-04-28T06:12:14;6.45;;;4.97;;
11620;SDS011;5866;49.094;11.900;2023-04-28T06:14:42;12.23;;;5.15;;
11620;SDS011;5866;49.094;11.900;2023-04-28T06:17:11;6.25;;;4.53;;
11620;SDS011;5866;49.094;11.900;2023-04-28T06:19:38;5.47;;;4.85;;
11620;SDS011;5866;49.094;11.900;2023-04-28T06:22:06;6.85;;;4.65;;
11620;SDS011;5866;49.094;11.900;2023-04-28T06:24:33;5.15;;;4.65;;
11620;SDS011;5866;49.094;11.900;2023-04-28T06:27:01;5.85;;;4.97;;
11620;SDS011;5866;49.094;11.900;2023-04-28T06:29:28;5.70;;;5.15;;
11620;SDS011;5866;49.094;11.900;2023-04-28T06:31:56;5.65;;;4.68;;
11620;SDS011;5866;49.094;11.900;2023-04-28T06:34:25;6.85;;;5.25;;
11620;SDS011;5866;49.094;11.900;2023-04-28T06:36:54;7.40;;;5.40;;
11620;SDS011;5866;49.094;11.900;2023-04-28T06:39:21;7.53;;;5.70;;
11620;SDS011;5866;49.094;11.900;2023-04-28T06:41:49;6.43;;;5.18;;
11620;SDS011;5866;49.094;11.900;2023-04-28T06:44:16;6.45;;;5.00;;
11620;SDS011;5866;49.094;11.900;2023-04-28T06:46:44;6.57;;;5.15;;
11620;SDS011;5866;49.094;11.900;2023-04-28T06:49:12;6.32;;;5.72;;
11620;SDS011;5866;49.094;11.900;2023-04-28T06:51:40;8.82;;;5.55;;
11620;SDS011;5866;49.094;11.900;2023-04-28T06:54:08;11.80;;;5.97;;
11620;SDS011;5866;49.094;11.900;2023-04-28T06:56:36;8.20;;;5.45;;
11620;SDS011;5866;49.094;11.900;2023-04-28T06:59:04;7.93;;;5.45;;
11620;SDS011;5866;49.094;11.900;2023-04-28T07:01:32;9.63;;;5.90;;
11620;SDS011;5866;49.094;11.900;2023-04-28T07:03:59;7.78;;;6.30;;
11620;SDS011;5866;49.094;11.900;2023-04-28T07:06:27;6.40;;;5.75;;
11620;SDS011;5866;49.094;11.900;2023-04-28T07:08:58;7.30;;;6.13;;
11620;SDS011;5866;49.094;11.900;2023-04-28T07:11:25;6.65;;;5.43;;
11620;SDS011;5866;49.094;11.900;2023-04-28T07:13:53;7.90;;;6.20;;
11620;SDS011;5866;49.094;11.900;2023-04-28T07:16:20;6.43;;;5.80;;
11620;SDS011;5866;49.094;11.900;2023-04-28T07:18:48;7.68;;;6.25;;
11620;SDS011;5866;49.094;11.900;2023-04-28T07:21:15;7.68;;;6.57;;
11620;SDS011;5866;49.094;11.900;2023-04-28T07:23:43;8.10;;;6.10;;
11620;SDS011;5866;49.094;11.900;2023-04-28T07:26:12;7.32;;;5.85;;
11620;SDS011;5866;49.094;11.900;2023-04-28T07:28:42;7.30;;;5.72;;
11620;SDS011;5866;49.094;11.900;2023-04-28T07:31:10;8.23;;;6.07;;
11620;SDS011;5866;49.094;11.900;2023-04-28T07:33:37;7.03;;;6.00;;
11620;SDS011;5866;49.094;11.900;2023-04-28T07:36:05;8.18;;;7.20;;
11620;SDS011;5866;49.094;11.900;2023-04-28T07:38:33;10.43;;;6.38;;
11620;SDS011;5866;49.094;11.900;2023-04-28T07:41:01;8.52;;;6.40;;
11620;SDS011;5866;49.094;11.900;2023-04-28T07:43:34;9.27;;;5.88;;
11620;SDS011;5866;49.094;11.900;2023-04-28T07:46:01;8.43;;;6.78;;
11620;SDS011;5866;49.094;11.900;2023-04-28T07:48:29;8.77;;;7.05;;
11620;SDS011;5866;49.094;11.900;2023-04-28T07:50:57;8.82;;;7.05;;
11620;SDS011;5866;49.094;11.900;2023-04-28T07:53:25;9.90;;;7.35;;
11620;SDS011;5866;49.094;11.900;2023-04-28T07:55:53;12.60;;;6.80;;
11620;SDS011;5866;49.094;11.900;2023-04-28T07:58:20;10.55;;;7.55;;
11620;SDS011;5866;49.094;11.900;2023-04-28T08:00:49;11.07;;;6.63;;
11620;SDS011;5866;49.094;11.900;2023-04-28T08:03:16;10.48;;;7.68;;
11620;SDS011;5866;49.094;11.900;2023-04-28T08:05:44;10.10;;;7.00;;
11620;SDS011;5866;49.094;11.900;2023-04-28T08:08:12;9.30;;;7.30;;
11620;SDS011;5866;49.094;11.900;2023-04-28T08:10:39;9.97;;;8.30;;
11620;SDS011;5866;49.094;11.900;2023-04-28T08:13:08;9.70;;;7.35;;
11620;SDS011;5866;49.094;11.900;2023-04-28T08:15:36;10.90;;;8.27;;
11620;SDS011;5866;49.094;11.900;2023-04-28T08:18:05;10.63;;;8.30;;
11620;SDS011;5866;49.094;11.900;2023-04-28T08:20:33;9.63;;;8.10;;
11620;SDS011;5866;49.094;11.900;2023-04-28T08:23:01;13.05;;;8.02;;
11620;SDS011;5866;49.094;11.900;2023-04-28T08:25:28;10.05;;;7.88;;
11620;SDS011;5866;49.094;11.900;2023-04-28T08:27:56;11.23;;;8.20;;
11620;SDS011;5866;49.094;11.900;2023-04-28T08:30:23;10.43;;;7.72;;
11620;SDS011;5866;49.094;11.900;2023-04-28T08:32:51;9.02;;;8.05;;
11620;SDS011;5866;49.094;11.900;2023-04-28T08:35:20;18.02;;;8.73;;
11620;SDS011;5866;49.094;11.900;2023-04-28T08:37:48;11.73;;;8.30;;
11620;SDS011;5866;49.094;11.900;2023-04-28T08:40:15;10.90;;;8.15;;
11620;SDS011;5866;49.094;11.900;2023-04-28T08:42:43;9.52;;;8.25;;
11620;SDS011;5866;49.094;11.900;2023-04-28T08:45:11;10.35;;;8.75;;
11620;SDS011;5866;49.094;11.900;2023-04-28T08:47:41;9.63;;;8.18;;
11620;SDS011;5866;49.094;11.900;2023-04-28T08:50:11;11.13;;;8.75;;
11620;SDS011;5866;49.094;11.900;2023-04-28T08:52:41;12.60;;;9.27;;
11620;SDS011;5866;49.094;11.900;2023-04-28T08:55:10;10.80;;;8.48;;
11620;SDS011;5866;49.094;11.900;2023-04-28T08:57:42;10.68;;;9.13;;
11620;SDS011;5866;49.094;11.900;2023-04-28T09:00:10;11.75;;;9.18;;
11620;SDS011;5866;49.094;11.900;2023-04-28T09:02:38;13.68;;;9.35;;
11620;SDS011;5866;49.094;11.900;2023-04-28T09:05:08;12.55;;;9.57;;
11620;SDS011;5866;49.094;11.900;2023-04-28T09:07:37;11.75;;;9.60;;
11620;SDS011;5866;49.094;11.900;2023-04-28T09:12:53;11.52;;;9.55;;
11620;SDS011;5866;49.094;11.900;2023-04-28T09:15:26;9.98;;;8.82;;
11620;SDS011;5866;49.094;11.900;2023-04-28T09:17:58;13.02;;;9.80;;
11620;SDS011;5866;49.094;11.900;2023-04-28T09:20:28;12.32;;;9.32;;
11620;SDS011;5866;49.094;11.900;2023-04-28T09:23:11;12.77;;;9.90;;
11620;SDS011;5866;49.094;11.900;2023-04-28T09:25:41;11.65;;;10.00;;
11620;SDS011;5866;49.094;11.900;2023-04-28T09:28:22;12.82;;;10.35;;
11620;SDS011;5866;49.094;11.900;2023-04-28T09:30:49;12.73;;;11.27;;
11620;SDS011;5866;49.094;11.900;2023-04-28T09:33:17;11.63;;;10.43;;
11620;SDS011;5866;49.094;11.900;2023-04-28T09:35:46;14.15;;;11.82;;
11620;SDS011;5866;49.094;11.900;2023-04-28T09:38:14;11.70;;;10.50;;
11620;SDS011;5866;49.094;11.900;2023-04-28T09:40:50;12.38;;;11.13;;
11620;SDS011;5866;49.094;11.900;2023-04-28T09:43:25;15.85;;;11.05;;
11620;SDS011;5866;49.094;11.900;2023-04-28T09:45:54;13.38;;;10.55;;
11620;SDS011;5866;49.094;11.900;2023-04-28T09:48:30;15.48;;;11.20;;
11620;SDS011;5866;49.094;11.900;2023-04-28T09:50:59;11.85;;;10.68;;
11620;SDS011;5866;49.094;11.900;2023-04-28T09:53:28;12.43;;;11.13;;
11620;SDS011;5866;49.094;11.900;2023-04-28T09:55:59;16.65;;;11.57;;
11620;SDS011;5866;49.094;11.900;2023-04-28T09:58:27;13.52;;;11.65;;
11620;SDS011;5866;49.094;11.900;2023-04-28T10:00:56;13.55;;;12.15;;
11620;SDS011;5866;49.094;11.900;2023-04-28T10:03:25;12.18;;;10.88;;
11620;SDS011;5866;49.094;11.900;2023-04-28T10:05:55;13.13;;;11.70;;
11620;SDS011;5866;49.094;11.900;2023-04-28T10:08:24;13.65;;;11.95;;
11620;SDS011;5866;49.094;11.900;2023-04-28T10:10:53;13.02;;;11.73;;
11620;SDS011;5866;49.094;11.900;2023-04-28T10:13:23;16.20;;;12.93;;
11620;SDS011;5866;49.094;11.900;2023-04-28T10:15:51;13.23;;;11.63;;
11620;SDS011;5866;49.094;11.900;2023-04-28T10:18:21;14.57;;;12.43;;
11620;SDS011;5866;49.094;11.900;2023-04-28T10:20:52;13.18;;;11.65;;
11620;SDS011;5866;49.094;11.900;2023-04-28T10:29:35;14.27;;;12.60;;
11620;SDS011;5866;49.094;11.900;2023-04-28T10:34:52;15.85;;;12.90;;
11620;SDS011;5866;49.094;11.900;2023-04-28T10:40:31;14.07;;;12.57;;
11620;SDS011;5866;49.094;11.900;2023-04-28T10:42:59;14.57;;;13.18;;
11620;SDS011;5866;49.094;11.900;2023-04-28T10:51:28;14.88;;;13.38;;
11620;SDS011;5866;49.094;11.900;2023-04-28T10:54:08;16.10;;;14.43;;
11620;SDS011;5866;49.094;11.900;2023-04-28T10:56:36;19.88;;;15.18;;
11620;SDS011;5866;49.094;11.900;2023-04-28T11:01:53;18.20;;;14.13;;
11620;SDS011;5866;49.094;11.900;2023-04-28T11:04:20;13.80;;;12.40;;
11620;SDS011;5866;49.094;11.900;2023-04-28T11:09:49;14.73;;;13.32;;
11620;SDS011;5866;49.094;11.900;2023-04-28T11:12:18;15.35;;;13.75;;
11620;SDS011;5866;49.094;11.900;2023-04-28T11:14:45;14.32;;;12.75;;
11620;SDS011;5866;49.094;11.900;2023-04-28T11:17:13;14.23;;;12.73;;
11620;SDS011;5866;49.094;11.900;2023-04-28T11:19:44;14.52;;;13.02;;
11620;SDS011;5866;49.094;11.900;2023-04-28T11:22:17;15.77;;;14.13;;
11620;SDS011;5866;49.094;11.900;2023-04-28T11:24:57;15.07;;;13.55;;
11620;SDS011;5866;49.094;11.900;2023-04-28T11:27:26;14.80;;;13.40;;
11620;SDS011;5866;49.094;11.900;2023-04-28T11:29:55;14.30;;;12.80;;
11620;SDS011;5866;49.094;11.900;2023-04-28T11:32:26;14.27;;;12.85;;
11620;SDS011;5866;49.094;11.900;2023-04-28T11:34:54;14.48;;;13.10;;
11620;SDS011;5866;49.094;11.900;2023-04-28T11:37:22;14.50;;;13.10;;
11620;SDS011;5866;49.094;11.900;2023-04-28T11:39:49;14.32;;;13.02;;
11620;SDS011;5866;49.094;11.900;2023-04-28T11:42:18;14.35;;;12.95;;
11620;SDS011;5866;49.094;11.900;2023-04-28T11:44:49;13.88;;;12.50;;
11620;SDS011;5866;49.094;11.900;2023-04-28T11:47:27;14.80;;;13.30;;
11620;SDS011;5866;49.094;11.900;2023-04-28T11:49:56;14.95;;;13.40;;
11620;SDS011;5866;49.094;11.900;2023-04-28T11:52:24;14.15;;;12.82;;
11620;SDS011;5866;49.094;11.900;2023-04-28T11:54:52;15.02;;;13.63;;
11620;SDS011;5866;49.094;11.900;2023-04-28T11:57:23;15.02;;;13.55;;
11620;SDS011;5866;49.094;11.900;2023-04-28T11:59:50;15.18;;;13.50;;
11620;SDS011;5866;49.094;11.900;2023-04-28T12:02:23;14.95;;;13.55;;
11620;SDS011;5866;49.094;11.900;2023-04-28T12:04:54;15.10;;;13.52;;
11620;SDS011;5866;49.094;11.900;2023-04-28T12:07:22;14.98;;;13.57;;
11620;SDS011;5866;49.094;11.900;2023-04-28T12:12:38;16.33;;;14.57;;
11620;SDS011;5866;49.094;11.900;2023-04-28T12:15:18;16.63;;;14.68;;
11620;SDS011;5866;49.094;11.900;2023-04-28T12:17:47;16.02;;;14.55;;
11620;SDS011;5866;49.094;11.900;2023-04-28T12:23:02;16.08;;;14.60;;
11620;SDS011;5866;49.094;11.900;2023-04-28T12:25:30;16.00;;;14.45;;
11620;SDS011;5866;49.094;11.900;2023-04-28T12:28:00;15.50;;;13.90;;
11620;SDS011;5866;49.094;11.900;2023-04-28T12:30:30;14.27;;;12.98;;
11620;SDS011;5866;49.094;11.900;2023-04-28T12:32:58;15.65;;;14.13;;
11620;SDS011;5866;49.094;11.900;2023-04-28T12:35:27;14.13;;;12.73;;
11620;SDS011;5866;49.094;11.900;2023-04-28T12:37:55;14.50;;;12.07;;
11620;SDS011;5866;49.094;11.900;2023-04-28T12:40:23;13.10;;;11.90;;
11620;SDS011;5866;49.094;11.900;2023-04-28T12:42:51;13.35;;;12.15;;
11620;SDS011;5866;49.094;11.900;2023-04-28T12:45:20;13.93;;;12.05;;
11620;SDS011;5866;49.094;11.900;2023-04-28T12:47:47;13.30;;;12.02;;
11620;SDS011;5866;49.094;11.900;2023-04-28T12:50:15;11.95;;;10.85;;
11620;SDS011;5866;49.094;11.900;2023-04-28T12:52:42;11.82;;;10.63;;
11620;SDS011;5866;49.094;11.900;2023-04-28T12:55:10;10.88;;;9.52;;
11620;SDS011;5866;49.094;11.900;2023-04-28T12:57:37;13.60;;;11.40;;
11620;SDS011;5866;49.094;11.900;2023-04-28T13:00:05;11.55;;;10.55;;
11620;SDS011;5866;49.094;11.900;2023-04-28T13:02:35;11.98;;;10.77;;
11620;SDS011;5866;49.094;11.900;2023-04-28T13:05:03;12.35;;;11.02;;
11620;SDS011;5866;49.094;11.900;2023-04-28T13:07:32;11.68;;;10.40;;
11620;SDS011;5866;49.094;11.900;2023-04-28T13:10:00;12.88;;;11.68;;
11620;SDS011;5866;49.094;11.900;2023-04-28T13:12:27;13.18;;;11.85;;
11620;SDS011;5866;49.094;11.900;2023-04-28T13:14:55;11.80;;;10.60;;
11620;SDS011;5866;49.094;11.900;2023-04-28T13:17:22;12.25;;;10.98;;
11620;SDS011;5866;49.094;11.900;2023-04-28T13:19:51;12.25;;;10.98;;
11620;SDS011;5866;49.094;11.900;2023-04-28T13:22:19;12.88;;;11.48;;
11620;SDS011;5866;49.094;11.900;2023-04-28T13:24:47;13.35;;;12.15;;
11620;SDS011;5866;49.094;11.900;2023-04-28T13:27:14;12.45;;;11.35;;
11620;SDS011;5866;49.094;11.900;2023-04-28T13:29:42;11.98;;;10.77;;
11620;SDS011;5866;49.094;11.900;2023-04-28T13:32:09;11.77;;;10.57;;
11620;SDS011;5866;49.094;11.900;2023-04-28T13:34:36;11.82;;;10.73;;
11620;SDS011;5866;49.094;11.900;2023-04-28T13:37:06;11.85;;;10.75;;
11620;SDS011;5866;49.094;11.900;2023-04-28T13:39:33;14.15;;;12.75;;
11620;SDS011;5866;49.094;11.900;2023-04-28T13:42:01;12.32;;;11.13;;
11620;SDS011;5866;49.094;11.900;2023-04-28T13:44:28;13.07;;;11.77;;
11620;SDS011;5866;49.094;11.900;2023-04-28T13:46:56;12.65;;;11.35;;
11620;SDS011;5866;49.094;11.900;2023-04-28T13:49:24;12.85;;;11.43;;
11620;SDS011;5866;49.094;11.900;2023-04-28T13:51:51;13.18;;;11.13;;
11620;SDS011;5866;49.094;11.900;2023-04-28T13:54:20;12.88;;;11.68;;
11620;SDS011;5866;49.094;11.900;2023-04-28T13:56:48;12.73;;;11.45;;
11620;SDS011;5866;49.094;11.900;2023-04-28T13:59:15;12.45;;;11.18;;
11620;SDS011;5866;49.094;11.900;2023-04-28T14:01:44;12.10;;;11.00;;
11620;SDS011;5866;49.094;11.900;2023-04-28T14:04:11;11.93;;;10.82;;
11620;SDS011;5866;49.094;11.900;2023-04-28T14:06:39;11.80;;;10.77;;
11620;SDS011;5866;49.094;11.900;2023-04-28T14:09:07;12.25;;;11.05;;
11620;SDS011;5866;49.094;11.900;2023-04-28T14:11:36;11.48;;;10.38;;
11620;SDS011;5866;49.094;11.900;2023-04-28T14:14:03;12.38;;;11.15;;
11620;SDS011;5866;49.094;11.900;2023-04-28T14:16:31;11.32;;;10.27;;
11620;SDS011;5866;49.094;11.900;2023-04-28T14:18:58;11.52;;;10.50;;
11620;SDS011;5866;49.094;11.900;2023-04-28T14:21:26;13.07;;;10.50;;
11620;SDS011;5866;49.094;11.900;2023-04-28T14:23:54;13.48;;;10.15;;
11620;SDS011;5866;49.094;11.900;2023-04-28T14:26:21;11.13;;;10.02;;
11620;SDS011;5866;49.094;11.900;2023-04-28T14:28:51;11.18;;;10.13;;
11620;SDS011;5866;49.094;11.900;2023-04-28T14:31:20;11.63;;;10.52;;
11620;SDS011;5866;49.094;11.900;2023-04-28T14:33:47;11.93;;;10.77;;
11620;SDS011;5866;49.094;11.900;2023-04-28T14:36:15;12.70;;;11.50;;
11620;SDS011;5866;49.094;11.900;2023-04-28T14:38:42;11.90;;;10.70;;
11620;SDS011;5866;49.094;11.900;2023-04-28T14:41:10;11.25;;;10.25;;
11620;SDS011;5866;49.094;11.900;2023-04-28T14:43:37;11.77;;;10.68;;
11620;SDS011;5866;49.094;11.900;2023-04-28T14:46:06;12.32;;;11.13;;
11620;SDS011;5866;49.094;11.900;2023-04-28T14:48:34;11.80;;;10.70;;
11620;SDS011;5866;49.094;11.900;2023-04-28T14:51:02;12.07;;;10.98;;
11620;SDS011;5866;49.094;11.900;2023-04-28T14:53:30;11.45;;;10.43;;
11620;SDS011;5866;49.094;11.900;2023-04-28T14:55:58;11.75;;;10.57;;
11620;SDS011;5866;49.094;11.900;2023-04-28T14:58:43;11.75;;;10.55;;
11620;SDS011;5866;49.094;11.900;2023-04-28T15:01:12;11.68;;;10.57;;
11620;SDS011;5866;49.094;11.900;2023-04-28T15:03:39;12.27;;;11.05;;
11620;SDS011;5866;49.094;11.900;2023-04-28T15:06:07;11.45;;;10.13;;
11620;SDS011;5866;49.094;11.900;2023-04-28T15:08:35;12.30;;;11.00;;
11620;SDS011;5866;49.094;11.900;2023-04-28T15:11:03;12.25;;;11.05;;
11620;SDS011;5866;49.094;11.900;2023-04-28T15:13:30;12.63;;;11.32;;
11620;SDS011;5866;49.094;11.900;2023-04-28T15:15:58;12.95;;;11.65;;